sensor_id;sensor_type;location;lat;lon;timestamp;temperature;humidity
10010;DHT22;5044;48.652;9.250;2023-07-20T00:00:04;19.90;75.90
10010;DHT22;5044;48.652;9.250;2023-07-20T00:02:31;19.80;74.30
10010;DHT22;5044;48.652;9.250;2023-07-20T00:04:58;19.80;74.90
10010;DHT22;5044;48.652;9.250;2023-07-20T00:07:25;19.80;75.10
10010;DHT22;5044;48.652;9.250;2023-07-20T00:09:52;19.80;75.30
10010;DHT22;5044;48.652;9.250;2023-07-20T00:12:19;19.80;75.00
10010;DHT22;5044;48.652;9.250;2023-07-20T00:14:45;19.80;76.20
10010;DHT22;5044;48.652;9.250;2023-07-20T00:17:14;19.80;76.40
10010;DHT22;5044;48.652;9.250;2023-07-20T00:19:40;19.80;79.00
10010;DHT22;5044;48.652;9.250;2023-07-20T00:22:07;19.80;77.80
10010;DHT22;5044;48.652;9.250;2023-07-20T00:24:34;19.80;77.60
10010;DHT22;5044;48.652;9.250;2023-07-20T00:27:01;19.80;78.00
10010;DHT22;5044;48.652;9.250;2023-07-20T00:29:28;19.80;80.10
10010;DHT22;5044;48.652;9.250;2023-07-20T00:31:56;19.80;80.90
10010;DHT22;5044;48.652;9.250;2023-07-20T00:34:24;19.60;78.90
10010;DHT22;5044;48.652;9.250;2023-07-20T00:36:51;19.70;78.10
10010;DHT22;5044;48.652;9.250;2023-07-20T00:39:18;19.70;79.10
10010;DHT22;5044;48.652;9.250;2023-07-20T00:41:44;19.60;78.40
10010;DHT22;5044;48.652;9.250;2023-07-20T00:44:11;19.60;80.90
10010;DHT22;5044;48.652;9.250;2023-07-20T00:46:38;19.50;79.80
10010;DHT22;5044;48.652;9.250;2023-07-20T00:49:07;19.50;80.80
10010;DHT22;5044;48.652;9.250;2023-07-20T00:51:35;19.50;80.60
10010;DHT22;5044;48.652;9.250;2023-07-20T00:54:02;19.50;77.70
10010;DHT22;5044;48.652;9.250;2023-07-20T00:56:29;19.40;78.10
10010;DHT22;5044;48.652;9.250;2023-07-20T00:58:56;19.40;77.40
10010;DHT22;5044;48.652;9.250;2023-07-20T01:01:23;19.40;75.70
10010;DHT22;5044;48.652;9.250;2023-07-20T01:03:50;19.30;74.20
10010;DHT22;5044;48.652;9.250;2023-07-20T01:06:26;19.20;75.30
10010;DHT22;5044;48.652;9.250;2023-07-20T01:09:04;19.20;76.90
10010;DHT22;5044;48.652;9.250;2023-07-20T01:11:37;19.20;74.80
10010;DHT22;5044;48.652;9.250;2023-07-20T01:14:05;19.20;75.00
10010;DHT22;5044;48.652;9.250;2023-07-20T01:16:33;19.10;77.20
10010;DHT22;5044;48.652;9.250;2023-07-20T01:19:00;19.20;76.70
10010;DHT22;5044;48.652;9.250;2023-07-20T01:21:31;19.10;75.50
10010;DHT22;5044;48.652;9.250;2023-07-20T01:30:20;18.90;75.80
10010;DHT22;5044;48.652;9.250;2023-07-20T01:32:54;19.00;75.00
10010;DHT22;5044;48.652;9.250;2023-07-20T01:35:23;18.90;74.70
10010;DHT22;5044;48.652;9.250;2023-07-20T01:37:53;19.00;76.00
10010;DHT22;5044;48.652;9.250;2023-07-20T01:40:21;19.00;75.30
10010;DHT22;5044;48.652;9.250;2023-07-20T01:42:48;18.90;77.40
10010;DHT22;5044;48.652;9.250;2023-07-20T01:45:15;18.80;75.30
10010;DHT22;5044;48.652;9.250;2023-07-20T01:47:42;18.80;76.10
10010;DHT22;5044;48.652;9.250;2023-07-20T01:50:10;18.80;77.10
10010;DHT22;5044;48.652;9.250;2023-07-20T01:52:37;18.80;76.70
10010;DHT22;5044;48.652;9.250;2023-07-20T01:55:05;18.90;76.60
10010;DHT22;5044;48.652;9.250;2023-07-20T01:57:32;18.70;79.20
10010;DHT22;5044;48.652;9.250;2023-07-20T01:59:59;18.50;77.60
10010;DHT22;5044;48.652;9.250;2023-07-20T02:02:27;18.60;77.80
10010;DHT22;5044;48.652;9.250;2023-07-20T02:04:54;18.50;76.80
10010;DHT22;5044;48.652;9.250;2023-07-20T02:07:22;18.60;77.20
10010;DHT22;5044;48.652;9.250;2023-07-20T02:09:49;18.50;76.70
10010;DHT22;5044;48.652;9.250;2023-07-20T02:12:16;18.50;77.10
10010;DHT22;5044;48.652;9.250;2023-07-20T02:14:43;18.50;79.40
10010;DHT22;5044;48.652;9.250;2023-07-20T02:17:10;18.40;80.70
10010;DHT22;5044;48.652;9.250;2023-07-20T02:19:37;18.30;80.10
10010;DHT22;5044;48.652;9.250;2023-07-20T02:22:04;18.10;79.60
10010;DHT22;5044;48.652;9.250;2023-07-20T02:24:33;18.10;80.50
10010;DHT22;5044;48.652;9.250;2023-07-20T02:27:00;18.10;79.80
10010;DHT22;5044;48.652;9.250;2023-07-20T02:29:26;18.10;79.20
10010;DHT22;5044;48.652;9.250;2023-07-20T02:31:53;18.00;81.00
10010;DHT22;5044;48.652;9.250;2023-07-20T02:34:20;17.90;81.40
10010;DHT22;5044;48.652;9.250;2023-07-20T02:36:47;17.90;81.20
10010;DHT22;5044;48.652;9.250;2023-07-20T02:39:14;18.00;81.30
10010;DHT22;5044;48.652;9.250;2023-07-20T02:41:42;18.00;80.80
10010;DHT22;5044;48.652;9.250;2023-07-20T02:44:09;17.90;81.60
10010;DHT22;5044;48.652;9.250;2023-07-20T02:46:36;17.80;82.30
10010;DHT22;5044;48.652;9.250;2023-07-20T02:49:03;17.80;83.20
10010;DHT22;5044;48.652;9.250;2023-07-20T02:51:29;17.70;82.20
10010;DHT22;5044;48.652;9.250;2023-07-20T02:53:56;17.70;83.30
10010;DHT22;5044;48.652;9.250;2023-07-20T02:56:23;17.70;82.50
10010;DHT22;5044;48.652;9.250;2023-07-20T02:58:51;17.80;82.10
10010;DHT22;5044;48.652;9.250;2023-07-20T03:01:18;17.80;84.10
10010;DHT22;5044;48.652;9.250;2023-07-20T03:03:45;17.60;83.70
10010;DHT22;5044;48.652;9.250;2023-07-20T03:06:13;17.40;84.00
10010;DHT22;5044;48.652;9.250;2023-07-20T03:08:40;17.40;86.90
10010;DHT22;5044;48.652;9.250;2023-07-20T03:11:12;17.50;84.10
10010;DHT22;5044;48.652;9.250;2023-07-20T03:13:39;17.40;85.30
10010;DHT22;5044;48.652;9.250;2023-07-20T03:16:07;17.40;83.70
10010;DHT22;5044;48.652;9.250;2023-07-20T03:18:36;17.40;84.80
10010;DHT22;5044;48.652;9.250;2023-07-20T03:21:03;17.30;87.20
10010;DHT22;5044;48.652;9.250;2023-07-20T03:23:30;17.30;86.40
10010;DHT22;5044;48.652;9.250;2023-07-20T03:25:57;17.20;89.30
10010;DHT22;5044;48.652;9.250;2023-07-20T03:28:24;17.20;88.20
10010;DHT22;5044;48.652;9.250;2023-07-20T03:30:53;17.10;87.60
10010;DHT22;5044;48.652;9.250;2023-07-20T03:33:21;17.10;88.90
10010;DHT22;5044;48.652;9.250;2023-07-20T03:35:48;17.10;86.30
10010;DHT22;5044;48.652;9.250;2023-07-20T03:38:15;17.00;88.70
10010;DHT22;5044;48.652;9.250;2023-07-20T03:40:49;17.00;88.50
10010;DHT22;5044;48.652;9.250;2023-07-20T03:43:16;17.00;85.10
10010;DHT22;5044;48.652;9.250;2023-07-20T03:45:43;17.00;87.20
10010;DHT22;5044;48.652;9.250;2023-07-20T03:48:11;17.00;89.10
10010;DHT22;5044;48.652;9.250;2023-07-20T03:50:39;16.90;89.00
10010;DHT22;5044;48.652;9.250;2023-07-20T03:53:05;17.00;89.50
10010;DHT22;5044;48.652;9.250;2023-07-20T03:55:32;17.00;87.90
10010;DHT22;5044;48.652;9.250;2023-07-20T03:57:59;16.90;86.00
10010;DHT22;5044;48.652;9.250;2023-07-20T04:00:26;16.90;94.50
10010;DHT22;5044;48.652;9.250;2023-07-20T04:02:53;16.90;92.10
10010;DHT22;5044;48.652;9.250;2023-07-20T04:05:19;16.90;90.80
10010;DHT22;5044;48.652;9.250;2023-07-20T04:07:48;16.90;91.70
10010;DHT22;5044;48.652;9.250;2023-07-20T04:10:14;16.90;88.90
10010;DHT22;5044;48.652;9.250;2023-07-20T04:12:42;16.90;90.10
10010;DHT22;5044;48.652;9.250;2023-07-20T04:15:09;16.90;92.40
10010;DHT22;5044;48.652;9.250;2023-07-20T04:17:36;16.80;91.40
10010;DHT22;5044;48.652;9.250;2023-07-20T04:20:04;16.80;90.50
10010;DHT22;5044;48.652;9.250;2023-07-20T04:22:31;16.90;90.20
10010;DHT22;5044;48.652;9.250;2023-07-20T04:24:59;16.80;91.60
10010;DHT22;5044;48.652;9.250;2023-07-20T04:27:26;16.80;91.50
10010;DHT22;5044;48.652;9.250;2023-07-20T04:29:53;16.90;90.20
10010;DHT22;5044;48.652;9.250;2023-07-20T04:32:20;17.00;90.90
10010;DHT22;5044;48.652;9.250;2023-07-20T04:34:47;17.00;88.00
10010;DHT22;5044;48.652;9.250;2023-07-20T04:37:13;17.00;92.70
10010;DHT22;5044;48.652;9.250;2023-07-20T04:39:40;17.00;90.30
10010;DHT22;5044;48.652;9.250;2023-07-20T04:42:08;17.00;89.90
10010;DHT22;5044;48.652;9.250;2023-07-20T04:44:35;16.90;88.90
10010;DHT22;5044;48.652;9.250;2023-07-20T04:47:02;17.00;91.60
10010;DHT22;5044;48.652;9.250;2023-07-20T04:49:29;17.00;89.20
10010;DHT22;5044;48.652;9.250;2023-07-20T04:51:56;17.00;92.40
10010;DHT22;5044;48.652;9.250;2023-07-20T04:54:23;17.10;90.80
10010;DHT22;5044;48.652;9.250;2023-07-20T04:56:50;17.10;92.90
10010;DHT22;5044;48.652;9.250;2023-07-20T04:59:18;17.00;92.00
10010;DHT22;5044;48.652;9.250;2023-07-20T05:01:44;17.10;92.30
10010;DHT22;5044;48.652;9.250;2023-07-20T05:04:11;17.20;91.90
10010;DHT22;5044;48.652;9.250;2023-07-20T05:06:38;17.10;91.30
10010;DHT22;5044;48.652;9.250;2023-07-20T05:09:05;17.30;89.20
10010;DHT22;5044;48.652;9.250;2023-07-20T05:11:32;17.40;91.10
10010;DHT22;5044;48.652;9.250;2023-07-20T05:13:59;17.30;92.20
10010;DHT22;5044;48.652;9.250;2023-07-20T05:16:28;17.30;91.30
10010;DHT22;5044;48.652;9.250;2023-07-20T05:18:55;17.40;93.30
10010;DHT22;5044;48.652;9.250;2023-07-20T05:21:23;17.40;93.10
10010;DHT22;5044;48.652;9.250;2023-07-20T05:23:50;17.40;92.80
10010;DHT22;5044;48.652;9.250;2023-07-20T05:26:17;17.50;92.00
10010;DHT22;5044;48.652;9.250;2023-07-20T05:28:44;17.50;91.30
10010;DHT22;5044;48.652;9.250;2023-07-20T05:31:12;17.60;90.30
10010;DHT22;5044;48.652;9.250;2023-07-20T05:33:40;17.60;92.00
10010;DHT22;5044;48.652;9.250;2023-07-20T05:36:07;17.70;89.00
10010;DHT22;5044;48.652;9.250;2023-07-20T05:38:33;17.70;91.60
10010;DHT22;5044;48.652;9.250;2023-07-20T05:41:00;17.80;91.40
10010;DHT22;5044;48.652;9.250;2023-07-20T05:43:29;17.70;91.60
10010;DHT22;5044;48.652;9.250;2023-07-20T05:45:56;17.70;92.00
10010;DHT22;5044;48.652;9.250;2023-07-20T05:48:23;17.80;91.40
10010;DHT22;5044;48.652;9.250;2023-07-20T05:50:52;17.90;92.10
10010;DHT22;5044;48.652;9.250;2023-07-20T05:53:19;17.90;90.90
10010;DHT22;5044;48.652;9.250;2023-07-20T05:55:52;18.00;90.70
10010;DHT22;5044;48.652;9.250;2023-07-20T05:58:18;18.00;91.50
10010;DHT22;5044;48.652;9.250;2023-07-20T06:00:47;18.00;91.30
10010;DHT22;5044;48.652;9.250;2023-07-20T06:03:14;18.10;88.20
10010;DHT22;5044;48.652;9.250;2023-07-20T06:05:42;18.20;92.80
10010;DHT22;5044;48.652;9.250;2023-07-20T06:08:10;18.30;91.40
10010;DHT22;5044;48.652;9.250;2023-07-20T06:10:37;18.30;90.30
10010;DHT22;5044;48.652;9.250;2023-07-20T06:13:04;18.40;92.10
10010;DHT22;5044;48.652;9.250;2023-07-20T06:15:32;18.50;91.60
10010;DHT22;5044;48.652;9.250;2023-07-20T06:18:00;18.50;88.30
10010;DHT22;5044;48.652;9.250;2023-07-20T06:20:27;18.50;87.10
10010;DHT22;5044;48.652;9.250;2023-07-20T06:22:54;18.50;90.70
10010;DHT22;5044;48.652;9.250;2023-07-20T06:25:22;18.70;90.90
10010;DHT22;5044;48.652;9.250;2023-07-20T06:27:50;18.60;92.20
10010;DHT22;5044;48.652;9.250;2023-07-20T06:30:17;18.80;90.00
10010;DHT22;5044;48.652;9.250;2023-07-20T06:32:44;18.90;90.20
10010;DHT22;5044;48.652;9.250;2023-07-20T06:35:11;18.90;89.00
10010;DHT22;5044;48.652;9.250;2023-07-20T06:37:38;19.00;88.80
10010;DHT22;5044;48.652;9.250;2023-07-20T06:40:06;19.10;91.30
10010;DHT22;5044;48.652;9.250;2023-07-20T06:42:35;19.20;86.00
10010;DHT22;5044;48.652;9.250;2023-07-20T06:45:03;19.20;84.40
10010;DHT22;5044;48.652;9.250;2023-07-20T06:47:30;19.20;82.90
10010;DHT22;5044;48.652;9.250;2023-07-20T06:49:57;19.40;86.50
10010;DHT22;5044;48.652;9.250;2023-07-20T06:52:23;19.30;85.20
10010;DHT22;5044;48.652;9.250;2023-07-20T06:54:50;19.40;87.90
10010;DHT22;5044;48.652;9.250;2023-07-20T06:57:17;19.40;90.60
10010;DHT22;5044;48.652;9.250;2023-07-20T06:59:45;19.50;87.50
10010;DHT22;5044;48.652;9.250;2023-07-20T07:02:13;19.40;84.80
10010;DHT22;5044;48.652;9.250;2023-07-20T07:04:39;19.50;85.90
10010;DHT22;5044;48.652;9.250;2023-07-20T07:07:06;19.60;87.80
10010;DHT22;5044;48.652;9.250;2023-07-20T07:09:33;19.80;84.00
10010;DHT22;5044;48.652;9.250;2023-07-20T07:12:00;20.00;91.50
10010;DHT22;5044;48.652;9.250;2023-07-20T07:14:27;20.20;84.60
10010;DHT22;5044;48.652;9.250;2023-07-20T07:16:55;20.20;85.60
10010;DHT22;5044;48.652;9.250;2023-07-20T07:19:21;20.30;84.60
10010;DHT22;5044;48.652;9.250;2023-07-20T07:21:48;20.30;83.00
10010;DHT22;5044;48.652;9.250;2023-07-20T07:24:15;20.60;85.40
10010;DHT22;5044;48.652;9.250;2023-07-20T07:26:42;20.90;82.30
10010;DHT22;5044;48.652;9.250;2023-07-20T07:29:09;20.80;80.10
10010;DHT22;5044;48.652;9.250;2023-07-20T07:31:36;20.70;78.30
10010;DHT22;5044;48.652;9.250;2023-07-20T07:34:05;20.70;82.80
10010;DHT22;5044;48.652;9.250;2023-07-20T07:36:33;20.80;79.80
10010;DHT22;5044;48.652;9.250;2023-07-20T07:39:00;21.20;73.90
10010;DHT22;5044;48.652;9.250;2023-07-20T07:41:26;21.60;80.00
10010;DHT22;5044;48.652;9.250;2023-07-20T07:43:53;21.60;74.90
10010;DHT22;5044;48.652;9.250;2023-07-20T07:46:20;21.60;77.40
10010;DHT22;5044;48.652;9.250;2023-07-20T07:48:47;22.20;80.80
10010;DHT22;5044;48.652;9.250;2023-07-20T07:51:15;22.20;72.60
10010;DHT22;5044;48.652;9.250;2023-07-20T07:53:42;22.20;72.80
10010;DHT22;5044;48.652;9.250;2023-07-20T07:56:09;22.20;76.60
10010;DHT22;5044;48.652;9.250;2023-07-20T07:58:36;21.90;70.10
10010;DHT22;5044;48.652;9.250;2023-07-20T08:01:03;21.80;72.40
10010;DHT22;5044;48.652;9.250;2023-07-20T08:03:30;21.90;73.60
10010;DHT22;5044;48.652;9.250;2023-07-20T08:05:57;21.70;72.50
10010;DHT22;5044;48.652;9.250;2023-07-20T08:08:25;21.90;76.30
10010;DHT22;5044;48.652;9.250;2023-07-20T08:10:53;21.80;71.30
10010;DHT22;5044;48.652;9.250;2023-07-20T08:13:20;21.80;72.20
10010;DHT22;5044;48.652;9.250;2023-07-20T08:15:50;22.00;69.40
10010;DHT22;5044;48.652;9.250;2023-07-20T08:18:17;22.40;71.30
10010;DHT22;5044;48.652;9.250;2023-07-20T08:20:44;22.60;67.90
10010;DHT22;5044;48.652;9.250;2023-07-20T08:23:11;22.30;66.80
10010;DHT22;5044;48.652;9.250;2023-07-20T08:25:40;22.20;70.60
10010;DHT22;5044;48.652;9.250;2023-07-20T08:28:09;22.00;73.70
10010;DHT22;5044;48.652;9.250;2023-07-20T08:30:40;21.40;70.50
10010;DHT22;5044;48.652;9.250;2023-07-20T08:33:08;21.40;71.70
10010;DHT22;5044;48.652;9.250;2023-07-20T08:35:35;22.10;73.70
10010;DHT22;5044;48.652;9.250;2023-07-20T08:38:02;22.60;68.90
10010;DHT22;5044;48.652;9.250;2023-07-20T08:40:30;23.00;67.10
10010;DHT22;5044;48.652;9.250;2023-07-20T08:42:58;23.30;63.50
10010;DHT22;5044;48.652;9.250;2023-07-20T08:45:26;23.40;64.60
10010;DHT22;5044;48.652;9.250;2023-07-20T08:47:54;23.40;65.50
10010;DHT22;5044;48.652;9.250;2023-07-20T08:50:23;23.30;64.50
10010;DHT22;5044;48.652;9.250;2023-07-20T08:52:52;23.50;64.70
10010;DHT22;5044;48.652;9.250;2023-07-20T08:55:20;23.80;63.60
10010;DHT22;5044;48.652;9.250;2023-07-20T08:57:50;23.80;63.30
10010;DHT22;5044;48.652;9.250;2023-07-20T09:00:19;24.10;61.90
10010;DHT22;5044;48.652;9.250;2023-07-20T09:02:48;24.40;60.80
10010;DHT22;5044;48.652;9.250;2023-07-20T09:05:15;24.10;61.10
10010;DHT22;5044;48.652;9.250;2023-07-20T09:07:43;23.70;61.10
10010;DHT22;5044;48.652;9.250;2023-07-20T09:10:10;24.00;60.50
10010;DHT22;5044;48.652;9.250;2023-07-20T09:12:38;23.40;58.80
10010;DHT22;5044;48.652;9.250;2023-07-20T09:15:06;23.20;61.70
10010;DHT22;5044;48.652;9.250;2023-07-20T09:17:35;23.60;61.20
10010;DHT22;5044;48.652;9.250;2023-07-20T09:20:02;23.70;60.70
10010;DHT22;5044;48.652;9.250;2023-07-20T09:22:34;24.20;60.40
10010;DHT22;5044;48.652;9.250;2023-07-20T09:25:00;23.80;57.50
10010;DHT22;5044;48.652;9.250;2023-07-20T09:27:35;23.60;60.60
10010;DHT22;5044;48.652;9.250;2023-07-20T09:30:04;24.00;63.20
10010;DHT22;5044;48.652;9.250;2023-07-20T09:32:39;24.40;58.80
10010;DHT22;5044;48.652;9.250;2023-07-20T09:35:10;24.80;60.20
10010;DHT22;5044;48.652;9.250;2023-07-20T09:37:39;24.10;56.60
10010;DHT22;5044;48.652;9.250;2023-07-20T09:40:07;23.90;59.20
10010;DHT22;5044;48.652;9.250;2023-07-20T09:42:36;24.60;60.90
10010;DHT22;5044;48.652;9.250;2023-07-20T09:45:07;24.90;58.60
10010;DHT22;5044;48.652;9.250;2023-07-20T09:47:36;25.20;57.20
10010;DHT22;5044;48.652;9.250;2023-07-20T09:50:06;25.10;55.00
10010;DHT22;5044;48.652;9.250;2023-07-20T09:52:39;25.40;54.60
10010;DHT22;5044;48.652;9.250;2023-07-20T09:55:07;24.90;50.30
10010;DHT22;5044;48.652;9.250;2023-07-20T09:57:35;24.90;52.40
10010;DHT22;5044;48.652;9.250;2023-07-20T10:00:04;25.10;52.70
10010;DHT22;5044;48.652;9.250;2023-07-20T10:02:45;25.50;53.90
10010;DHT22;5044;48.652;9.250;2023-07-20T10:05:15;25.90;54.10
10010;DHT22;5044;48.652;9.250;2023-07-20T10:07:44;25.80;52.20
10010;DHT22;5044;48.652;9.250;2023-07-20T10:10:15;26.10;54.20
10010;DHT22;5044;48.652;9.250;2023-07-20T10:12:44;26.20;52.60
10010;DHT22;5044;48.652;9.250;2023-07-20T10:15:15;25.50;49.30
10010;DHT22;5044;48.652;9.250;2023-07-20T10:17:52;25.20;50.40
10010;DHT22;5044;48.652;9.250;2023-07-20T10:20:21;24.70;50.80
10010;DHT22;5044;48.652;9.250;2023-07-20T10:22:49;25.00;51.20
10010;DHT22;5044;48.652;9.250;2023-07-20T10:25:18;25.10;52.30
10010;DHT22;5044;48.652;9.250;2023-07-20T10:27:47;25.30;51.50
10010;DHT22;5044;48.652;9.250;2023-07-20T10:30:15;25.50;51.10
10010;DHT22;5044;48.652;9.250;2023-07-20T10:32:44;25.80;52.20
10010;DHT22;5044;48.652;9.250;2023-07-20T10:35:15;25.90;50.60
10010;DHT22;5044;48.652;9.250;2023-07-20T10:37:47;26.10;52.30
10010;DHT22;5044;48.652;9.250;2023-07-20T10:40:25;26.10;48.90
10010;DHT22;5044;48.652;9.250;2023-07-20T10:42:57;25.80;49.20
10010;DHT22;5044;48.652;9.250;2023-07-20T10:45:45;25.70;47.80
10010;DHT22;5044;48.652;9.250;2023-07-20T10:48:15;25.80;49.00
10010;DHT22;5044;48.652;9.250;2023-07-20T10:50:43;25.60;48.60
10010;DHT22;5044;48.652;9.250;2023-07-20T10:53:16;26.20;48.40
10010;DHT22;5044;48.652;9.250;2023-07-20T10:55:43;26.70;47.50
10010;DHT22;5044;48.652;9.250;2023-07-20T10:58:12;26.60;44.90
10010;DHT22;5044;48.652;9.250;2023-07-20T11:00:58;25.90;46.40
10010;DHT22;5044;48.652;9.250;2023-07-20T11:03:27;25.40;46.90
10010;DHT22;5044;48.652;9.250;2023-07-20T11:05:55;25.20;47.70
10010;DHT22;5044;48.652;9.250;2023-07-20T11:08:39;25.10;48.20
10010;DHT22;5044;48.652;9.250;2023-07-20T11:11:24;25.60;49.10
10010;DHT22;5044;48.652;9.250;2023-07-20T11:13:58;26.20;48.60
10010;DHT22;5044;48.652;9.250;2023-07-20T11:16:39;26.40;46.90
10010;DHT22;5044;48.652;9.250;2023-07-20T11:19:13;26.00;46.40
10010;DHT22;5044;48.652;9.250;2023-07-20T11:21:41;25.70;47.40
10010;DHT22;5044;48.652;9.250;2023-07-20T11:24:10;25.90;44.40
10010;DHT22;5044;48.652;9.250;2023-07-20T11:26:43;25.50;44.00
10010;DHT22;5044;48.652;9.250;2023-07-20T11:29:10;25.40;44.40
10010;DHT22;5044;48.652;9.250;2023-07-20T11:31:38;26.00;45.00
10010;DHT22;5044;48.652;9.250;2023-07-20T11:34:05;26.40;45.10
10010;DHT22;5044;48.652;9.250;2023-07-20T11:36:33;26.40;43.80
10010;DHT22;5044;48.652;9.250;2023-07-20T11:39:00;26.90;44.50
10010;DHT22;5044;48.652;9.250;2023-07-20T11:41:31;27.10;44.50
10010;DHT22;5044;48.652;9.250;2023-07-20T11:43:58;27.00;44.60
10010;DHT22;5044;48.652;9.250;2023-07-20T11:46:25;26.90;44.40
10010;DHT22;5044;48.652;9.250;2023-07-20T11:48:57;27.40;45.20
10010;DHT22;5044;48.652;9.250;2023-07-20T11:51:26;27.80;45.00
10010;DHT22;5044;48.652;9.250;2023-07-20T11:53:53;27.20;44.30
10010;DHT22;5044;48.652;9.250;2023-07-20T11:56:20;26.90;43.50
10010;DHT22;5044;48.652;9.250;2023-07-20T11:58:48;26.60;44.10
10010;DHT22;5044;48.652;9.250;2023-07-20T12:01:15;26.20;43.60
10010;DHT22;5044;48.652;9.250;2023-07-20T12:03:44;26.10;44.00
10010;DHT22;5044;48.652;9.250;2023-07-20T12:06:11;26.20;43.90
10010;DHT22;5044;48.652;9.250;2023-07-20T12:08:38;26.50;43.50
10010;DHT22;5044;48.652;9.250;2023-07-20T12:11:06;26.50;43.30
10010;DHT22;5044;48.652;9.250;2023-07-20T12:13:37;26.40;43.50
10010;DHT22;5044;48.652;9.250;2023-07-20T12:16:10;26.30;42.90
10010;DHT22;5044;48.652;9.250;2023-07-20T12:18:38;26.90;43.50
10010;DHT22;5044;48.652;9.250;2023-07-20T12:21:06;27.20;42.60
10010;DHT22;5044;48.652;9.250;2023-07-20T12:23:38;27.90;43.90
10010;DHT22;5044;48.652;9.250;2023-07-20T12:26:06;28.30;44.20
10010;DHT22;5044;48.652;9.250;2023-07-20T12:28:38;28.40;43.20
10010;DHT22;5044;48.652;9.250;2023-07-20T12:31:05;28.20;42.10
10010;DHT22;5044;48.652;9.250;2023-07-20T12:33:33;28.20;42.30
10010;DHT22;5044;48.652;9.250;2023-07-20T12:36:00;28.00;41.90
10010;DHT22;5044;48.652;9.250;2023-07-20T12:38:27;28.30;42.20
10010;DHT22;5044;48.652;9.250;2023-07-20T12:40:56;28.30;41.50
10010;DHT22;5044;48.652;9.250;2023-07-20T12:43:24;28.40;41.70
10010;DHT22;5044;48.652;9.250;2023-07-20T12:45:51;28.40;42.00
10010;DHT22;5044;48.652;9.250;2023-07-20T12:48:18;28.50;43.50
10010;DHT22;5044;48.652;9.250;2023-07-20T12:50:46;28.90;44.10
10010;DHT22;5044;48.652;9.250;2023-07-20T12:53:13;27.90;40.60
10010;DHT22;5044;48.652;9.250;2023-07-20T12:55:40;27.70;40.90
10010;DHT22;5044;48.652;9.250;2023-07-20T12:58:07;28.10;41.30
10010;DHT22;5044;48.652;9.250;2023-07-20T13:00:34;28.00;40.70
10010;DHT22;5044;48.652;9.250;2023-07-20T13:03:01;28.00;40.90
10010;DHT22;5044;48.652;9.250;2023-07-20T13:05:30;28.30;41.30
10010;DHT22;5044;48.652;9.250;2023-07-20T13:07:58;28.80;42.60
10010;DHT22;5044;48.652;9.250;2023-07-20T13:10:25;28.90;41.40
10010;DHT22;5044;48.652;9.250;2023-07-20T13:12:52;28.80;41.10
10010;DHT22;5044;48.652;9.250;2023-07-20T13:15:19;29.10;42.40
10010;DHT22;5044;48.652;9.250;2023-07-20T13:17:46;28.90;40.30
10010;DHT22;5044;48.652;9.250;2023-07-20T13:20:13;29.00;40.20
10010;DHT22;5044;48.652;9.250;2023-07-20T13:22:40;29.00;41.60
10010;DHT22;5044;48.652;9.250;2023-07-20T13:25:09;28.90;40.40
10010;DHT22;5044;48.652;9.250;2023-07-20T13:27:36;28.10;39.50
10010;DHT22;5044;48.652;9.250;2023-07-20T13:30:04;27.60;39.70
10010;DHT22;5044;48.652;9.250;2023-07-20T13:32:35;27.20;40.30
10010;DHT22;5044;48.652;9.250;2023-07-20T13:35:02;27.20;41.30
10010;DHT22;5044;48.652;9.250;2023-07-20T13:37:29;27.60;41.60
10010;DHT22;5044;48.652;9.250;2023-07-20T13:39:56;28.10;41.50
10010;DHT22;5044;48.652;9.250;2023-07-20T13:42:24;28.20;41.00
10010;DHT22;5044;48.652;9.250;2023-07-20T13:44:51;28.00;40.10
10010;DHT22;5044;48.652;9.250;2023-07-20T13:47:17;27.90;40.20
10010;DHT22;5044;48.652;9.250;2023-07-20T13:49:44;27.50;40.20
10010;DHT22;5044;48.652;9.250;2023-07-20T13:52:11;27.30;40.50
10010;DHT22;5044;48.652;9.250;2023-07-20T13:54:38;27.30;41.50
10010;DHT22;5044;48.652;9.250;2023-07-20T13:57:05;27.30;41.30
10010;DHT22;5044;48.652;9.250;2023-07-20T13:59:33;27.20;41.90
10010;DHT22;5044;48.652;9.250;2023-07-20T14:02:00;27.20;41.30
10010;DHT22;5044;48.652;9.250;2023-07-20T14:04:27;27.70;42.30
10010;DHT22;5044;48.652;9.250;2023-07-20T14:06:54;28.10;42.20
10010;DHT22;5044;48.652;9.250;2023-07-20T14:09:21;28.00;41.60
10010;DHT22;5044;48.652;9.250;2023-07-20T14:11:48;28.40;41.50
10010;DHT22;5044;48.652;9.250;2023-07-20T14:14:15;28.20;40.80
10010;DHT22;5044;48.652;9.250;2023-07-20T14:16:43;28.10;40.30
10010;DHT22;5044;48.652;9.250;2023-07-20T14:19:10;28.20;40.20
10010;DHT22;5044;48.652;9.250;2023-07-20T14:21:38;28.40;40.20
10010;DHT22;5044;48.652;9.250;2023-07-20T14:24:05;28.50;39.70
10010;DHT22;5044;48.652;9.250;2023-07-20T14:26:32;28.40;39.70
10010;DHT22;5044;48.652;9.250;2023-07-20T14:28:58;28.40;39.50
10010;DHT22;5044;48.652;9.250;2023-07-20T14:31:25;28.30;39.20
10010;DHT22;5044;48.652;9.250;2023-07-20T14:33:53;28.40;39.30
10010;DHT22;5044;48.652;9.250;2023-07-20T14:36:20;28.50;39.40
10010;DHT22;5044;48.652;9.250;2023-07-20T14:38:48;28.50;39.20
10010;DHT22;5044;48.652;9.250;2023-07-20T14:41:15;28.40;38.80
10010;DHT22;5044;48.652;9.250;2023-07-20T14:43:41;28.50;39.10
10010;DHT22;5044;48.652;9.250;2023-07-20T14:46:08;28.60;39.10
10010;DHT22;5044;48.652;9.250;2023-07-20T14:48:35;28.40;38.60
10010;DHT22;5044;48.652;9.250;2023-07-20T14:51:04;28.40;39.00
10010;DHT22;5044;48.652;9.250;2023-07-20T14:53:30;28.30;38.60
10010;DHT22;5044;48.652;9.250;2023-07-20T14:56:00;28.30;38.50
10010;DHT22;5044;48.652;9.250;2023-07-20T14:58:27;27.90;38.20
10010;DHT22;5044;48.652;9.250;2023-07-20T15:00:54;27.90;38.70
10010;DHT22;5044;48.652;9.250;2023-07-20T15:03:21;28.10;39.40
10010;DHT22;5044;48.652;9.250;2023-07-20T15:05:48;27.60;38.80
10010;DHT22;5044;48.652;9.250;2023-07-20T15:08:18;27.30;39.10
10010;DHT22;5044;48.652;9.250;2023-07-20T15:10:45;27.80;40.60
10010;DHT22;5044;48.652;9.250;2023-07-20T15:13:12;28.20;40.20
10010;DHT22;5044;48.652;9.250;2023-07-20T15:15:39;28.50;39.80
10010;DHT22;5044;48.652;9.250;2023-07-20T15:18:07;28.40;38.80
10010;DHT22;5044;48.652;9.250;2023-07-20T15:20:34;27.90;38.30
10010;DHT22;5044;48.652;9.250;2023-07-20T15:23:01;27.80;38.70
10010;DHT22;5044;48.652;9.250;2023-07-20T15:25:29;28.00;39.40
10010;DHT22;5044;48.652;9.250;2023-07-20T15:27:56;28.10;39.80
10010;DHT22;5044;48.652;9.250;2023-07-20T15:30:29;28.00;39.50
10010;DHT22;5044;48.652;9.250;2023-07-20T15:32:56;27.90;39.00
10010;DHT22;5044;48.652;9.250;2023-07-20T15:35:23;27.50;39.10
10010;DHT22;5044;48.652;9.250;2023-07-20T15:37:50;27.40;40.30
10010;DHT22;5044;48.652;9.250;2023-07-20T15:40:17;27.20;39.60
10010;DHT22;5044;48.652;9.250;2023-07-20T15:42:45;27.30;40.60
10010;DHT22;5044;48.652;9.250;2023-07-20T15:45:12;27.40;40.50
10010;DHT22;5044;48.652;9.250;2023-07-20T15:47:39;27.60;40.00
10010;DHT22;5044;48.652;9.250;2023-07-20T15:50:06;27.60;40.10
10010;DHT22;5044;48.652;9.250;2023-07-20T15:52:33;27.40;40.20
10010;DHT22;5044;48.652;9.250;2023-07-20T15:55:00;27.10;39.90